Terminal Aerodrome Forecast
Issued by NWS

Home | Current Version | Previous Version | Text Only | Print | Product List | Glossary On
Versions: 1 2 3 4 5 6 7 8 9 10 11 12 13 14 15 16 17 18 19
000
FTUS45 KRIW 291700
TAFBPI
TAF
KBPI 291730Z 2918/3018 VRB05KT P6SM SCT015
     FM291900 VRB05KT P6SM SCT030
     FM292100 21007KT P6SM VCSH BKN050
     FM300200 34008KT P6SM SCT080=

USA.gov is the U.S. government's official web portal to all federal, state and local government web resources and services.